createdAt,value
2023-04-25T00:00:15.735Z,58.90
2023-04-25T00:02:42.590Z,59.10
2023-04-25T00:05:09.509Z,59.50
2023-04-25T00:07:36.246Z,59.00
2023-04-25T00:10:03.209Z,59.10
2023-04-25T00:12:29.914Z,59.30
2023-04-25T00:14:57.906Z,59.70
2023-04-25T00:17:27.853Z,59.40
2023-04-25T00:19:54.523Z,59.30
2023-04-25T00:22:21.600Z,59.50
2023-04-25T00:24:48.272Z,59.30
2023-04-25T00:27:14.884Z,58.90
2023-04-25T00:29:41.435Z,59.10
2023-04-25T00:32:08.058Z,59.00
2023-04-25T00:34:34.656Z,59.10
2023-04-25T00:37:03.008Z,59.70
2023-04-25T00:39:29.701Z,59.00
2023-04-25T00:41:56.565Z,59.50
2023-04-25T00:44:23.230Z,59.30
2023-04-25T00:46:50.519Z,59.50
2023-04-25T00:49:17.897Z,59.70
2023-04-25T00:51:45.669Z,59.50
2023-04-25T00:54:13.312Z,59.60
2023-04-25T00:56:40.357Z,58.80
2023-04-25T00:59:07.319Z,58.60
2023-04-25T01:01:34.062Z,58.70
2023-04-25T01:04:01.914Z,58.60
2023-04-25T01:06:28.669Z,58.80
2023-04-25T01:08:55.404Z,59.30
2023-04-25T01:11:22.048Z,58.70
2023-04-25T01:13:48.950Z,58.70
2023-04-25T01:16:15.902Z,58.90
2023-04-25T01:18:42.667Z,58.70
2023-04-25T01:21:11.004Z,58.90
2023-04-25T01:23:39.249Z,59.60
2023-04-25T01:26:06.708Z,59.20
2023-04-25T01:28:34.102Z,58.60
2023-04-25T01:31:00.735Z,58.50
2023-04-25T01:33:27.405Z,59.40
2023-04-25T01:35:54.077Z,59.00
2023-04-25T01:38:20.723Z,58.50
2023-04-25T01:40:50.303Z,58.60
2023-04-25T01:43:16.895Z,58.60
2023-04-25T01:45:43.606Z,58.50
2023-04-25T01:48:10.733Z,58.70
2023-04-25T01:50:38.287Z,58.60
2023-04-25T01:53:05.355Z,58.40
2023-04-25T01:55:31.998Z,59.40
2023-04-25T01:57:59.465Z,59.30
2023-04-25T02:00:26.131Z,58.30
2023-04-25T02:02:54.530Z,58.60
2023-04-25T02:05:21.743Z,59.30
2023-04-25T02:07:48.604Z,59.20
2023-04-25T02:10:15.915Z,58.70
2023-04-25T02:12:42.554Z,58.80
2023-04-25T02:15:09.275Z,58.20
2023-04-25T02:17:35.905Z,57.90
2023-04-25T02:20:02.577Z,57.60
2023-04-25T02:22:31.349Z,57.40
2023-04-25T02:24:57.950Z,57.90
2023-04-25T02:27:24.544Z,57.90
2023-04-25T02:29:51.101Z,58.20
2023-04-25T02:32:17.681Z,58.20
2023-04-25T02:34:44.275Z,58.30
2023-04-25T02:37:11.011Z,58.50
2023-04-25T02:39:37.670Z,58.10
2023-04-25T02:42:04.254Z,58.20
2023-04-25T02:44:30.886Z,58.70
2023-04-25T02:46:57.471Z,58.00
2023-04-25T02:49:24.110Z,58.40
2023-04-25T02:51:50.741Z,58.70
2023-04-25T02:54:17.305Z,59.00
2023-04-25T02:56:43.850Z,58.30
2023-04-25T02:59:10.517Z,58.20
2023-04-25T03:01:37.044Z,58.30
2023-04-25T03:04:03.674Z,58.70
2023-04-25T03:06:30.287Z,58.10
2023-04-25T03:08:56.965Z,58.50
2023-04-25T03:11:24.616Z,58.60
2023-04-25T03:13:51.370Z,58.30
2023-04-25T03:16:18.163Z,58.30
2023-04-25T03:18:44.759Z,57.90
2023-04-25T03:21:11.477Z,58.30
2023-04-25T03:23:38.059Z,58.10
2023-04-25T03:26:05.211Z,58.80
2023-04-25T03:28:31.908Z,58.70
2023-04-25T03:30:58.615Z,58.50
2023-04-25T03:33:25.343Z,58.30
2023-04-25T03:35:52.162Z,58.40
2023-04-25T03:38:18.731Z,58.60
2023-04-25T03:40:45.274Z,58.30
2023-04-25T03:43:12.240Z,58.20
2023-04-25T03:45:38.912Z,58.30
2023-04-25T03:48:05.878Z,58.00
2023-04-25T03:50:32.464Z,58.30
2023-04-25T03:52:59.272Z,58.10
2023-04-25T03:55:25.858Z,58.30
2023-04-25T03:57:52.411Z,58.00
2023-04-25T04:00:18.980Z,58.90
2023-04-25T04:02:45.931Z,58.40
2023-04-25T04:05:12.868Z,58.10
2023-04-25T04:07:41.119Z,57.90
2023-04-25T04:10:08.599Z,58.20
2023-04-25T04:12:35.265Z,58.20
2023-04-25T04:15:02.447Z,58.40
2023-04-25T04:17:29.053Z,57.70
2023-04-25T04:19:56.019Z,58.00
2023-04-25T04:22:23.195Z,57.70
2023-04-25T04:24:50.863Z,57.90
2023-04-25T04:27:20.833Z,57.80
2023-04-25T04:29:47.460Z,57.50
2023-04-25T04:32:14.895Z,58.10
2023-04-25T04:34:42.211Z,58.70
2023-04-25T04:37:08.942Z,58.40
2023-04-25T04:39:35.558Z,58.50
2023-04-25T04:42:05.960Z,58.50
2023-04-25T04:44:36.329Z,57.90
2023-04-25T04:47:04.755Z,57.40
2023-04-25T04:49:31.409Z,57.10
2023-04-25T04:51:59.649Z,56.90
2023-04-25T04:54:26.500Z,56.90
2023-04-25T04:56:53.655Z,56.90
2023-04-25T04:59:20.223Z,56.90
2023-04-25T05:01:47.819Z,57.60
2023-04-25T05:04:14.650Z,57.10
2023-04-25T05:06:41.506Z,56.90
2023-04-25T05:09:08.140Z,57.40
2023-04-25T05:11:34.787Z,56.70
2023-04-25T05:14:01.435Z,56.90
2023-04-25T05:16:28.164Z,57.70
2023-04-25T05:18:54.715Z,57.30
2023-04-25T05:21:21.292Z,58.00
2023-04-25T05:23:47.899Z,57.70
2023-04-25T05:26:14.836Z,57.80
2023-04-25T05:28:42.722Z,57.90
2023-04-25T05:31:12.813Z,57.80
2023-04-25T05:33:39.382Z,57.70
2023-04-25T05:36:06.207Z,57.60
2023-04-25T05:38:34.799Z,57.50
2023-04-25T05:41:01.909Z,57.30
2023-04-25T05:43:28.481Z,58.00
2023-04-25T05:45:55.260Z,57.70
2023-04-25T05:48:21.937Z,57.30
2023-04-25T05:50:48.545Z,57.70
2023-04-25T05:53:15.211Z,57.10
2023-04-25T05:55:41.774Z,57.50
2023-04-25T05:58:08.361Z,58.20
2023-04-25T06:00:35.094Z,57.80
2023-04-25T06:03:02.382Z,57.70
2023-04-25T06:05:29.519Z,57.80
2023-04-25T06:07:56.246Z,57.30
2023-04-25T06:10:23.655Z,57.50
2023-04-25T06:12:50.298Z,57.60
2023-04-25T06:15:28.206Z,57.80
2023-04-25T06:17:55.963Z,57.30
2023-04-25T06:20:24.957Z,57.90
2023-04-25T06:22:52.803Z,58.10
2023-04-25T06:25:19.490Z,57.90
2023-04-25T06:27:46.070Z,57.80
2023-04-25T06:30:16.227Z,57.80
2023-04-25T06:32:42.883Z,57.50
2023-04-25T06:35:09.759Z,57.80
2023-04-25T06:37:36.400Z,58.00
2023-04-25T06:40:03.461Z,58.90
2023-04-25T06:42:30.018Z,58.00
2023-04-25T06:44:56.820Z,57.40
2023-04-25T06:47:23.440Z,57.30
2023-04-25T06:49:50.402Z,57.10
2023-04-25T06:52:18.907Z,56.70
2023-04-25T06:54:46.120Z,57.00
2023-04-25T06:57:12.914Z,56.60
2023-04-25T06:59:39.508Z,56.60
2023-04-25T07:02:07.044Z,57.00
2023-04-25T07:04:33.862Z,56.80
2023-04-25T07:07:01.986Z,56.70
2023-04-25T07:09:28.576Z,56.70
2023-04-25T07:11:55.159Z,56.70
2023-04-25T07:14:21.757Z,56.80
2023-04-25T07:16:48.410Z,56.80
2023-04-25T07:19:15.072Z,57.30
2023-04-25T07:21:41.642Z,56.90
2023-04-25T07:24:08.440Z,57.10
2023-04-25T07:26:35.007Z,57.10
2023-04-25T07:29:01.707Z,57.70
2023-04-25T07:31:28.650Z,57.40
2023-04-25T07:33:55.253Z,57.30
2023-04-25T07:36:22.578Z,58.00
2023-04-25T07:38:49.352Z,57.60
2023-04-25T07:41:16.142Z,58.20
2023-04-25T07:43:42.734Z,57.80
2023-04-25T07:46:09.587Z,57.40
2023-04-25T07:48:36.268Z,57.70
2023-04-25T07:51:02.888Z,57.80
2023-04-25T07:53:29.447Z,57.40
2023-04-25T07:55:56.128Z,57.20
2023-04-25T07:58:22.979Z,57.70
2023-04-25T08:00:51.383Z,57.70
2023-04-25T08:03:18.197Z,57.60
2023-04-25T08:05:45.238Z,57.60
2023-04-25T08:08:11.931Z,57.70
2023-04-25T08:10:38.577Z,57.70
2023-04-25T08:13:05.283Z,57.70
2023-04-25T08:15:31.936Z,57.80
2023-04-25T08:17:58.576Z,58.40
2023-04-25T08:20:26.096Z,58.30
2023-04-25T08:22:52.749Z,58.00
2023-04-25T08:25:19.489Z,58.10
2023-04-25T08:27:46.179Z,57.90
2023-04-25T08:30:13.113Z,58.20
2023-04-25T08:32:39.802Z,57.80
2023-04-25T08:35:07.171Z,58.10
2023-04-25T08:37:33.792Z,58.50
2023-04-25T08:40:00.386Z,57.90
2023-04-25T08:42:28.150Z,58.30
2023-04-25T08:44:55.506Z,58.00
2023-04-25T08:47:23.414Z,57.90
2023-04-25T08:49:50.665Z,58.20
2023-04-25T08:52:21.542Z,58.10
2023-04-25T08:54:49.627Z,58.30
2023-04-25T08:57:18.240Z,58.10
2023-04-25T08:59:46.925Z,58.10
2023-04-25T09:02:18.847Z,58.10
2023-04-25T09:04:45.969Z,57.90
2023-04-25T09:07:12.645Z,58.10
2023-04-25T09:09:40.328Z,58.10
2023-04-25T09:12:07.120Z,58.40
2023-04-25T09:14:33.708Z,57.90
2023-04-25T09:17:01.634Z,58.30
2023-04-25T09:19:40.493Z,58.10
2023-04-25T09:22:08.234Z,58.00
2023-04-25T09:24:34.842Z,59.00
2023-04-25T09:27:04.237Z,58.60
2023-04-25T09:29:35.308Z,58.00
2023-04-25T09:32:31.589Z,57.60
2023-04-25T09:34:58.761Z,57.50
2023-04-25T09:37:29.629Z,57.30
2023-04-25T09:39:57.311Z,57.60
2023-04-25T09:42:25.892Z,57.60
2023-04-25T09:44:53.245Z,57.70
2023-04-25T09:47:22.442Z,57.60
2023-04-25T09:49:49.154Z,57.90
2023-04-25T09:52:17.811Z,57.60
2023-04-25T09:54:47.889Z,58.20
2023-04-25T09:57:15.823Z,58.10
2023-04-25T09:59:44.777Z,58.20
2023-04-25T10:02:11.971Z,57.90
2023-04-25T10:04:39.134Z,57.80
2023-04-25T10:07:06.724Z,57.70
2023-04-25T10:09:36.331Z,57.90
2023-04-25T10:12:04.433Z,57.50
2023-04-25T10:14:31.939Z,57.30
2023-04-25T10:16:58.864Z,57.20
2023-04-25T10:19:26.402Z,57.10
2023-04-25T10:21:55.120Z,57.50
2023-04-25T10:24:21.873Z,57.90
2023-04-25T10:26:49.299Z,57.20
2023-04-25T10:29:22.761Z,57.50
2023-04-25T10:31:49.382Z,57.70
2023-04-25T10:34:16.745Z,57.40
2023-04-25T10:36:43.690Z,57.10
2023-04-25T10:39:10.347Z,57.70
2023-04-25T10:41:53.423Z,58.40
2023-04-25T10:44:19.988Z,57.20
2023-04-25T10:46:49.636Z,57.20
2023-04-25T10:49:32.221Z,57.10
2023-04-25T10:52:17.301Z,57.30
2023-04-25T10:54:47.612Z,57.30
2023-04-25T10:57:33.151Z,58.10
2023-04-25T11:00:09.761Z,57.00
2023-04-25T11:02:42.268Z,56.90
2023-04-25T11:05:09.481Z,57.10
2023-04-25T11:07:36.382Z,56.80
2023-04-25T11:10:06.482Z,57.60
2023-04-25T11:12:33.380Z,57.30
2023-04-25T11:15:09.272Z,57.70
2023-04-25T11:17:36.457Z,57.60
2023-04-25T11:20:08.271Z,57.50
2023-04-25T11:22:34.862Z,56.80
2023-04-25T11:25:05.767Z,57.50
2023-04-25T11:27:32.471Z,57.50
2023-04-25T11:29:59.174Z,57.30
2023-04-25T11:32:27.610Z,58.00
2023-04-25T11:34:54.792Z,57.70
2023-04-25T11:37:22.197Z,58.00
2023-04-25T11:39:48.793Z,57.70
2023-04-25T11:42:15.453Z,57.40
2023-04-25T11:44:42.110Z,57.20
2023-04-25T11:47:08.760Z,57.40
2023-04-25T11:49:36.726Z,57.90
2023-04-25T11:52:06.827Z,57.90
2023-04-25T11:54:35.969Z,58.30
2023-04-25T11:57:02.569Z,58.70
2023-04-25T11:59:29.148Z,57.60
2023-04-25T12:01:56.278Z,57.10
2023-04-25T12:04:24.099Z,56.90
2023-04-25T12:06:52.794Z,56.30
2023-04-25T12:09:22.299Z,56.30
2023-04-25T12:11:49.931Z,56.30
2023-04-25T12:14:24.973Z,56.20
2023-04-25T12:16:52.610Z,56.40
2023-04-25T12:19:19.930Z,56.80
2023-04-25T12:21:57.375Z,56.60
2023-04-25T12:24:26.545Z,56.50
2023-04-25T12:27:03.508Z,56.80
2023-04-25T12:29:34.720Z,57.10
2023-04-25T12:32:09.088Z,57.60
2023-04-25T12:34:36.957Z,57.40
2023-04-25T12:37:03.731Z,57.40
2023-04-25T12:39:30.302Z,56.90
2023-04-25T12:41:56.886Z,57.80
2023-04-25T12:44:23.483Z,57.10
2023-04-25T12:46:50.989Z,57.10
2023-04-25T12:49:19.089Z,57.10
2023-04-25T12:51:46.273Z,57.00
2023-04-25T12:54:13.152Z,57.10
2023-04-25T12:56:39.752Z,57.30
2023-04-25T12:59:06.304Z,57.20
2023-04-25T13:01:34.728Z,57.10
2023-04-25T13:04:03.193Z,57.10
2023-04-25T13:06:31.414Z,56.90
2023-04-25T13:08:58.069Z,57.70
2023-04-25T13:11:24.874Z,56.90
2023-04-25T13:13:51.618Z,56.70
2023-04-25T13:16:19.812Z,56.70
2023-04-25T13:18:46.778Z,56.70
2023-04-25T13:21:13.505Z,56.90
2023-04-25T13:23:40.261Z,56.10
2023-04-25T13:26:06.999Z,56.30
2023-04-25T13:28:33.688Z,56.70
2023-04-25T13:31:00.498Z,56.20
2023-04-25T13:33:27.211Z,56.40
2023-04-25T13:35:58.067Z,56.90
2023-04-25T13:38:25.544Z,56.30
2023-04-25T13:40:55.679Z,57.20
2023-04-25T13:43:22.950Z,56.80
2023-04-25T13:45:50.064Z,56.30
2023-04-25T13:48:16.721Z,56.40
2023-04-25T13:50:43.365Z,56.40
2023-04-25T13:53:09.955Z,56.80
2023-04-25T13:55:39.928Z,56.60
2023-04-25T13:58:11.188Z,56.30
2023-04-25T14:00:43.277Z,56.80
2023-04-25T14:03:10.412Z,56.20
2023-04-25T14:05:41.309Z,57.00
2023-04-25T14:08:08.910Z,57.20
2023-04-25T14:10:35.726Z,56.90
2023-04-25T14:13:04.053Z,57.70
2023-04-25T14:15:33.919Z,56.70
2023-04-25T14:18:01.084Z,56.70
2023-04-25T14:20:27.836Z,56.50
2023-04-25T14:22:56.883Z,57.10
2023-04-25T14:25:24.091Z,56.60
2023-04-25T14:27:51.053Z,56.50
2023-04-25T14:30:18.998Z,55.90
2023-04-25T14:32:46.397Z,55.20
2023-04-25T14:35:13.271Z,55.50
2023-04-25T14:37:43.024Z,56.00
2023-04-25T14:40:11.630Z,55.40
2023-04-25T14:42:38.587Z,55.30
2023-04-25T14:45:06.236Z,55.90
2023-04-25T14:47:33.025Z,56.00
2023-04-25T14:49:59.821Z,55.70
2023-04-25T14:52:26.773Z,55.60
2023-04-25T14:54:53.523Z,55.40
2023-04-25T14:57:20.186Z,55.20
2023-04-25T14:59:46.762Z,55.30
2023-04-25T15:02:13.450Z,55.80
2023-04-25T15:04:40.248Z,56.30
2023-04-25T15:07:06.927Z,55.90
2023-04-25T15:09:33.600Z,56.00
2023-04-25T15:12:00.287Z,55.90
2023-04-25T15:14:26.973Z,55.90
2023-04-25T15:16:53.594Z,55.60
2023-04-25T15:19:20.307Z,55.10
2023-04-25T15:21:47.398Z,55.80
2023-04-25T15:24:16.054Z,55.30
2023-04-25T15:26:42.704Z,56.40
2023-04-25T15:29:09.332Z,55.70
2023-04-25T15:31:35.942Z,56.30
2023-04-25T15:34:03.047Z,55.30
2023-04-25T15:36:29.706Z,56.10
2023-04-25T15:38:56.710Z,55.60
2023-04-25T15:41:23.304Z,55.90
2023-04-25T15:43:50.274Z,56.90
2023-04-25T15:46:17.109Z,55.90
2023-04-25T15:48:43.757Z,55.60
2023-04-25T15:51:10.645Z,55.90
2023-04-25T15:53:37.358Z,54.40
2023-04-25T15:56:04.637Z,54.80
2023-04-25T15:58:31.247Z,55.30
2023-04-25T16:00:57.904Z,55.40
2023-04-25T16:03:24.721Z,55.10
2023-04-25T16:05:51.415Z,55.60
2023-04-25T16:08:18.111Z,55.60
2023-04-25T16:10:44.756Z,55.80
2023-04-25T16:13:11.419Z,55.60
2023-04-25T16:15:38.201Z,55.40
2023-04-25T16:18:04.930Z,55.40
2023-04-25T16:20:31.651Z,54.60
2023-04-25T16:22:58.316Z,54.40
2023-04-25T16:25:25.130Z,54.00
2023-04-25T16:27:52.007Z,53.80
2023-04-25T16:30:18.667Z,54.10
2023-04-25T16:32:45.722Z,53.70
2023-04-25T16:35:12.566Z,54.00
2023-04-25T16:37:39.199Z,53.80
2023-04-25T16:40:08.950Z,54.10
2023-04-25T16:42:38.582Z,54.60
2023-04-25T16:45:05.477Z,55.60
2023-04-25T16:47:41.315Z,55.00
2023-04-25T16:50:10.788Z,54.70
2023-04-25T16:55:23.772Z,56.00
2023-04-25T16:57:50.521Z,55.00
2023-04-25T17:00:25.829Z,54.90
2023-04-25T17:02:52.833Z,55.70
2023-04-25T17:05:19.537Z,55.70
2023-04-25T17:07:46.195Z,54.80
2023-04-25T17:10:13.028Z,54.30
2023-04-25T17:12:40.412Z,56.00
2023-04-25T17:15:07.583Z,55.60
2023-04-25T17:17:37.540Z,54.60
2023-04-25T17:20:06.746Z,53.30
2023-04-25T17:22:34.040Z,53.80
2023-04-25T17:25:00.757Z,55.20
2023-04-25T17:27:27.408Z,54.90
2023-04-25T17:29:54.016Z,54.80
2023-04-25T17:32:20.994Z,54.50
2023-04-25T17:34:48.224Z,55.30
2023-04-25T17:37:24.592Z,55.70
2023-04-25T17:40:04.703Z,54.60
2023-04-25T17:42:32.666Z,54.30
2023-04-25T17:45:13.632Z,54.40
2023-04-25T17:47:43.217Z,54.20
2023-04-25T17:50:13.364Z,54.30
2023-04-25T17:52:48.422Z,55.00
2023-04-25T17:55:15.497Z,55.40
2023-04-25T17:57:42.269Z,54.90
2023-04-25T18:00:09.371Z,55.80
2023-04-25T18:02:36.760Z,55.10
2023-04-25T18:05:09.310Z,55.20
2023-04-25T18:07:36.526Z,54.00
2023-04-25T18:10:05.865Z,54.00
2023-04-25T18:12:33.865Z,54.00
2023-04-25T18:15:00.998Z,53.40
2023-04-25T18:17:27.998Z,52.80
2023-04-25T18:19:55.434Z,52.80
2023-04-25T18:22:22.359Z,52.60
2023-04-25T18:24:50.050Z,52.70
2023-04-25T18:27:17.331Z,52.60
2023-04-25T18:29:45.421Z,52.50
2023-04-25T18:32:12.495Z,52.60
2023-04-25T18:34:41.562Z,53.60
2023-04-25T18:37:08.395Z,53.10
2023-04-25T18:39:34.978Z,53.30
2023-04-25T18:42:05.876Z,52.90
2023-04-25T18:44:36.521Z,52.90
2023-04-25T18:47:03.229Z,53.60
2023-04-25T18:49:29.902Z,53.30
2023-04-25T18:51:57.442Z,54.60
2023-04-25T18:54:24.163Z,55.60
2023-04-25T18:56:51.356Z,53.90
2023-04-25T18:59:18.268Z,53.90
2023-04-25T19:01:44.949Z,54.30
2023-04-25T19:04:11.739Z,53.30
2023-04-25T19:06:38.438Z,53.70
2023-04-25T19:09:05.119Z,53.20
2023-04-25T19:11:31.961Z,53.10
2023-04-25T19:13:58.590Z,53.10
2023-04-25T19:16:26.291Z,54.30
2023-04-25T19:18:56.612Z,54.80
2023-04-25T19:21:23.620Z,54.10
2023-04-25T19:23:52.644Z,53.30
2023-04-25T19:26:19.655Z,53.30
2023-04-25T19:28:46.297Z,53.00
2023-04-25T19:31:13.104Z,53.70
2023-04-25T19:33:39.812Z,53.10
2023-04-25T19:36:06.851Z,52.70
2023-04-25T19:38:33.457Z,52.80
2023-04-25T19:41:00.043Z,53.70
2023-04-25T19:43:26.927Z,54.20
2023-04-25T19:45:53.698Z,54.40
2023-04-25T19:48:21.103Z,54.30
2023-04-25T19:50:47.717Z,53.80
2023-04-25T19:53:14.277Z,53.50
2023-04-25T19:55:41.247Z,53.40
2023-04-25T19:58:08.103Z,53.50
2023-04-25T20:00:35.223Z,52.80
2023-04-25T20:03:01.893Z,52.90
2023-04-25T20:05:28.627Z,53.40
2023-04-25T20:07:55.211Z,53.90
2023-04-25T20:10:21.874Z,54.40
2023-04-25T20:12:48.638Z,55.00
2023-04-25T20:15:17.094Z,55.40
2023-04-25T20:17:43.876Z,54.30
2023-04-25T20:20:11.304Z,54.60
2023-04-25T20:22:40.046Z,53.70
2023-04-25T20:25:08.544Z,53.90
2023-04-25T20:27:37.790Z,53.00
2023-04-25T20:30:07.963Z,53.10
2023-04-25T20:32:35.076Z,53.00
2023-04-25T20:35:06.027Z,52.60
2023-04-25T20:37:33.154Z,52.60
2023-04-25T20:40:00.086Z,52.30
2023-04-25T20:42:26.794Z,52.70
2023-04-25T20:44:53.440Z,53.60
2023-04-25T20:47:20.217Z,53.40
2023-04-25T20:49:47.047Z,53.00
2023-04-25T20:52:13.663Z,53.20
2023-04-25T20:54:41.562Z,52.70
2023-04-25T20:57:08.198Z,52.70
2023-04-25T20:59:34.770Z,53.30
2023-04-25T21:02:01.415Z,52.90
2023-04-25T21:04:28.185Z,52.60
2023-04-25T21:06:54.828Z,53.20
2023-04-25T21:09:21.524Z,53.10
2023-04-25T21:11:48.186Z,54.00
2023-04-25T21:14:14.816Z,53.20
2023-04-25T21:16:42.628Z,53.30
2023-04-25T21:19:09.577Z,54.20
2023-04-25T21:21:36.448Z,53.60
2023-04-25T21:24:03.156Z,54.10
2023-04-25T21:26:29.818Z,53.70
2023-04-25T21:28:56.394Z,54.10
2023-04-25T21:31:23.063Z,54.40
2023-04-25T21:33:49.712Z,53.80
2023-04-25T21:36:17.005Z,54.40
2023-04-25T21:38:43.549Z,53.60
2023-04-25T21:41:10.123Z,54.10
2023-04-25T21:43:36.734Z,53.30
2023-04-25T21:46:19.094Z,54.20
2023-04-25T21:48:49.618Z,53.20
2023-04-25T21:51:17.703Z,53.20
2023-04-25T21:53:44.309Z,53.80
2023-04-25T21:56:11.299Z,53.20
2023-04-25T21:58:37.998Z,53.50
2023-04-25T22:01:07.534Z,54.40
2023-04-25T22:03:34.384Z,54.50
2023-04-25T22:06:01.213Z,53.80
2023-04-25T22:08:27.852Z,53.70
2023-04-25T22:10:55.251Z,53.90
2023-04-25T22:13:22.810Z,53.30
2023-04-25T22:15:49.549Z,53.60
2023-04-25T22:18:16.424Z,53.70
2023-04-25T22:20:44.261Z,53.20
2023-04-25T22:23:12.053Z,53.00
2023-04-25T22:25:38.886Z,53.30
2023-04-25T22:28:05.711Z,54.00
2023-04-25T22:30:32.618Z,54.00
2023-04-25T22:32:59.357Z,54.30
2023-04-25T22:35:26.163Z,53.40
2023-04-25T22:37:52.989Z,53.50
2023-04-25T22:40:19.663Z,54.80
2023-04-25T22:42:46.682Z,54.50
2023-04-25T22:45:13.370Z,54.00
2023-04-25T22:47:40.277Z,54.30
2023-04-25T22:50:08.594Z,53.60
2023-04-25T22:52:35.782Z,53.80
2023-04-25T22:55:03.233Z,53.70
2023-04-25T22:57:30.068Z,53.80
2023-04-25T22:59:57.501Z,53.20
2023-04-25T23:02:25.035Z,52.90
2023-04-25T23:04:53.192Z,52.90
2023-04-25T23:07:20.166Z,53.20
2023-04-25T23:09:46.778Z,54.40
2023-04-25T23:12:13.509Z,54.40
2023-04-25T23:14:40.089Z,54.40
2023-04-25T23:17:06.903Z,54.00
2023-04-25T23:19:34.361Z,54.20
2023-04-25T23:22:01.813Z,53.80
2023-04-25T23:24:28.367Z,54.00
2023-04-25T23:26:54.917Z,53.70
2023-04-25T23:29:21.512Z,53.40
2023-04-25T23:31:48.036Z,54.10
2023-04-25T23:34:14.607Z,53.80
2023-04-25T23:36:41.675Z,53.40
2023-04-25T23:39:09.431Z,53.40
2023-04-25T23:41:35.991Z,54.10
2023-04-25T23:44:03.508Z,53.50
2023-04-25T23:46:30.971Z,53.30
2023-04-25T23:48:57.937Z,53.30
2023-04-25T23:51:25.534Z,53.90
2023-04-25T23:53:52.078Z,54.40
2023-04-25T23:56:18.626Z,53.20
2023-04-25T23:58:46.569Z,53.10
